sensor_id;sensor_type;location;lat;lon;timestamp;temperature;humidity
31113;DHT22;17763;48.730;9.136;2022-11-22T00:00:16;7.40;99.90
31113;DHT22;17763;48.730;9.136;2022-11-22T00:02:43;7.40;99.90
31113;DHT22;17763;48.730;9.136;2022-11-22T00:05:09;7.40;99.90
31113;DHT22;17763;48.730;9.136;2022-11-22T00:07:35;7.40;99.90
31113;DHT22;17763;48.730;9.136;2022-11-22T00:10:05;7.40;99.90
31113;DHT22;17763;48.730;9.136;2022-11-22T00:12:33;7.40;99.90
31113;DHT22;17763;48.730;9.136;2022-11-22T00:15:01;7.40;99.90
31113;DHT22;17763;48.730;9.136;2022-11-22T00:17:30;7.30;99.90
31113;DHT22;17763;48.730;9.136;2022-11-22T00:19:56;7.40;99.90
31113;DHT22;17763;48.730;9.136;2022-11-22T00:22:23;7.40;99.90
31113;DHT22;17763;48.730;9.136;2022-11-22T00:24:50;7.30;99.90
31113;DHT22;17763;48.730;9.136;2022-11-22T00:27:16;7.30;99.90
31113;DHT22;17763;48.730;9.136;2022-11-22T00:29:45;7.30;99.90
31113;DHT22;17763;48.730;9.136;2022-11-22T00:32:15;7.30;99.90
31113;DHT22;17763;48.730;9.136;2022-11-22T00:34:41;7.40;99.90
31113;DHT22;17763;48.730;9.136;2022-11-22T00:37:06;7.30;99.90
31113;DHT22;17763;48.730;9.136;2022-11-22T00:39:32;7.40;99.90
31113;DHT22;17763;48.730;9.136;2022-11-22T00:41:58;7.30;99.90
31113;DHT22;17763;48.730;9.136;2022-11-22T00:44:24;7.30;99.90
31113;DHT22;17763;48.730;9.136;2022-11-22T00:46:49;7.40;99.90
31113;DHT22;17763;48.730;9.136;2022-11-22T00:49:15;7.40;99.90
31113;DHT22;17763;48.730;9.136;2022-11-22T00:51:41;7.40;99.90
31113;DHT22;17763;48.730;9.136;2022-11-22T00:54:09;7.40;99.90
31113;DHT22;17763;48.730;9.136;2022-11-22T00:56:35;7.40;99.90
31113;DHT22;17763;48.730;9.136;2022-11-22T00:59:01;7.40;99.90
31113;DHT22;17763;48.730;9.136;2022-11-22T01:01:29;7.40;99.90
31113;DHT22;17763;48.730;9.136;2022-11-22T01:03:55;7.40;99.90
31113;DHT22;17763;48.730;9.136;2022-11-22T01:06:21;7.40;99.90
31113;DHT22;17763;48.730;9.136;2022-11-22T01:08:47;7.40;99.90
31113;DHT22;17763;48.730;9.136;2022-11-22T01:11:17;7.50;99.90
31113;DHT22;17763;48.730;9.136;2022-11-22T01:13:43;7.40;99.90
31113;DHT22;17763;48.730;9.136;2022-11-22T01:16:10;7.40;99.90
31113;DHT22;17763;48.730;9.136;2022-11-22T01:18:36;7.50;99.90
31113;DHT22;17763;48.730;9.136;2022-11-22T01:21:03;7.50;99.90
31113;DHT22;17763;48.730;9.136;2022-11-22T01:23:28;7.50;99.90
31113;DHT22;17763;48.730;9.136;2022-11-22T01:25:57;7.50;99.90
31113;DHT22;17763;48.730;9.136;2022-11-22T01:28:23;7.50;99.90
31113;DHT22;17763;48.730;9.136;2022-11-22T01:30:49;7.50;99.90
31113;DHT22;17763;48.730;9.136;2022-11-22T01:33:20;7.50;99.90
31113;DHT22;17763;48.730;9.136;2022-11-22T01:35:49;7.50;99.90
31113;DHT22;17763;48.730;9.136;2022-11-22T01:38:15;7.50;99.90
31113;DHT22;17763;48.730;9.136;2022-11-22T01:40:40;7.50;99.90
31113;DHT22;17763;48.730;9.136;2022-11-22T01:43:21;7.50;99.90
31113;DHT22;17763;48.730;9.136;2022-11-22T01:45:58;7.50;99.90
31113;DHT22;17763;48.730;9.136;2022-11-22T01:48:43;7.50;99.90
31113;DHT22;17763;48.730;9.136;2022-11-22T01:51:27;7.50;99.90
31113;DHT22;17763;48.730;9.136;2022-11-22T01:53:57;7.50;99.90
31113;DHT22;17763;48.730;9.136;2022-11-22T01:56:23;7.50;99.90
31113;DHT22;17763;48.730;9.136;2022-11-22T01:58:53;7.50;99.90
31113;DHT22;17763;48.730;9.136;2022-11-22T02:01:21;7.60;99.90
31113;DHT22;17763;48.730;9.136;2022-11-22T02:03:48;7.50;99.90
31113;DHT22;17763;48.730;9.136;2022-11-22T02:06:17;7.60;99.90
31113;DHT22;17763;48.730;9.136;2022-11-22T02:08:55;7.50;99.90
31113;DHT22;17763;48.730;9.136;2022-11-22T02:11:24;7.50;99.90
31113;DHT22;17763;48.730;9.136;2022-11-22T02:13:54;7.40;99.90
31113;DHT22;17763;48.730;9.136;2022-11-22T02:16:22;7.30;99.90
31113;DHT22;17763;48.730;9.136;2022-11-22T02:18:51;7.30;99.90
31113;DHT22;17763;48.730;9.136;2022-11-22T02:21:18;7.30;99.90
31113;DHT22;17763;48.730;9.136;2022-11-22T02:23:59;7.30;99.90
31113;DHT22;17763;48.730;9.136;2022-11-22T02:26:28;7.30;99.90
31113;DHT22;17763;48.730;9.136;2022-11-22T02:28:58;7.30;99.90
31113;DHT22;17763;48.730;9.136;2022-11-22T02:31:33;7.30;99.90
31113;DHT22;17763;48.730;9.136;2022-11-22T02:33:59;7.30;99.90
31113;DHT22;17763;48.730;9.136;2022-11-22T02:36:25;7.30;99.90
31113;DHT22;17763;48.730;9.136;2022-11-22T02:38:51;7.20;99.90
31113;DHT22;17763;48.730;9.136;2022-11-22T02:41:20;7.20;99.90
31113;DHT22;17763;48.730;9.136;2022-11-22T02:43:49;7.20;99.90
31113;DHT22;17763;48.730;9.136;2022-11-22T02:46:15;7.20;99.90
31113;DHT22;17763;48.730;9.136;2022-11-22T02:48:47;7.20;99.90
31113;DHT22;17763;48.730;9.136;2022-11-22T02:51:14;7.20;99.90
31113;DHT22;17763;48.730;9.136;2022-11-22T02:53:42;7.20;99.90
31113;DHT22;17763;48.730;9.136;2022-11-22T02:56:08;7.20;99.90
31113;DHT22;17763;48.730;9.136;2022-11-22T02:58:34;7.20;99.90
31113;DHT22;17763;48.730;9.136;2022-11-22T03:01:00;7.30;99.90
31113;DHT22;17763;48.730;9.136;2022-11-22T03:03:25;7.30;99.90
31113;DHT22;17763;48.730;9.136;2022-11-22T03:05:55;7.30;99.90
31113;DHT22;17763;48.730;9.136;2022-11-22T03:08:21;7.30;99.90
31113;DHT22;17763;48.730;9.136;2022-11-22T03:10:47;7.30;99.90
31113;DHT22;17763;48.730;9.136;2022-11-22T03:13:13;7.30;99.90
31113;DHT22;17763;48.730;9.136;2022-11-22T03:15:38;7.30;99.90
31113;DHT22;17763;48.730;9.136;2022-11-22T03:18:04;7.30;99.90
31113;DHT22;17763;48.730;9.136;2022-11-22T03:20:31;7.30;99.90
31113;DHT22;17763;48.730;9.136;2022-11-22T03:23:00;7.30;99.90
31113;DHT22;17763;48.730;9.136;2022-11-22T03:25:28;7.30;99.90
31113;DHT22;17763;48.730;9.136;2022-11-22T03:27:56;7.20;99.90
31113;DHT22;17763;48.730;9.136;2022-11-22T03:30:25;7.30;99.90
31113;DHT22;17763;48.730;9.136;2022-11-22T03:32:55;7.20;99.90
31113;DHT22;17763;48.730;9.136;2022-11-22T03:35:21;7.20;99.90
31113;DHT22;17763;48.730;9.136;2022-11-22T03:37:46;7.20;99.90
31113;DHT22;17763;48.730;9.136;2022-11-22T03:40:14;7.20;99.90
31113;DHT22;17763;48.730;9.136;2022-11-22T03:42:42;7.20;99.90
31113;DHT22;17763;48.730;9.136;2022-11-22T03:45:09;7.20;99.90
31113;DHT22;17763;48.730;9.136;2022-11-22T03:47:35;7.20;99.90
31113;DHT22;17763;48.730;9.136;2022-11-22T03:50:00;7.20;99.90
31113;DHT22;17763;48.730;9.136;2022-11-22T03:52:28;7.20;99.90
31113;DHT22;17763;48.730;9.136;2022-11-22T03:54:54;7.20;99.90
31113;DHT22;17763;48.730;9.136;2022-11-22T03:57:22;7.20;99.90
31113;DHT22;17763;48.730;9.136;2022-11-22T03:59:48;7.30;99.90
31113;DHT22;17763;48.730;9.136;2022-11-22T04:02:16;7.30;99.90
31113;DHT22;17763;48.730;9.136;2022-11-22T04:04:42;7.30;99.90
31113;DHT22;17763;48.730;9.136;2022-11-22T04:07:08;7.20;99.90
31113;DHT22;17763;48.730;9.136;2022-11-22T04:09:34;7.30;99.90
31113;DHT22;17763;48.730;9.136;2022-11-22T04:11:59;7.30;99.90
31113;DHT22;17763;48.730;9.136;2022-11-22T04:14:25;7.30;99.90
31113;DHT22;17763;48.730;9.136;2022-11-22T04:17:12;7.20;99.90
31113;DHT22;17763;48.730;9.136;2022-11-22T04:19:57;7.20;99.90
31113;DHT22;17763;48.730;9.136;2022-11-22T04:22:54;7.20;99.90
31113;DHT22;17763;48.730;9.136;2022-11-22T04:25:22;7.20;99.90
31113;DHT22;17763;48.730;9.136;2022-11-22T04:27:50;7.20;99.90
31113;DHT22;17763;48.730;9.136;2022-11-22T04:30:15;7.10;99.90
31113;DHT22;17763;48.730;9.136;2022-11-22T04:32:41;7.00;99.90
31113;DHT22;17763;48.730;9.136;2022-11-22T04:35:11;7.00;99.90
31113;DHT22;17763;48.730;9.136;2022-11-22T04:37:41;7.00;99.90
31113;DHT22;17763;48.730;9.136;2022-11-22T04:40:09;7.00;99.90
31113;DHT22;17763;48.730;9.136;2022-11-22T04:42:35;7.00;99.90
31113;DHT22;17763;48.730;9.136;2022-11-22T04:45:19;7.00;99.90
31113;DHT22;17763;48.730;9.136;2022-11-22T04:47:45;7.10;99.90
31113;DHT22;17763;48.730;9.136;2022-11-22T04:50:30;7.10;99.90
31113;DHT22;17763;48.730;9.136;2022-11-22T04:53:15;7.10;99.90
31113;DHT22;17763;48.730;9.136;2022-11-22T04:55:45;7.10;99.90
31113;DHT22;17763;48.730;9.136;2022-11-22T04:58:12;7.10;99.90
31113;DHT22;17763;48.730;9.136;2022-11-22T05:00:38;7.10;99.90
31113;DHT22;17763;48.730;9.136;2022-11-22T05:03:04;7.10;99.90
31113;DHT22;17763;48.730;9.136;2022-11-22T05:05:34;7.10;99.90
31113;DHT22;17763;48.730;9.136;2022-11-22T05:07:59;7.10;99.90
31113;DHT22;17763;48.730;9.136;2022-11-22T05:10:26;7.20;99.90
31113;DHT22;17763;48.730;9.136;2022-11-22T05:12:51;7.10;99.90
31113;DHT22;17763;48.730;9.136;2022-11-22T05:15:20;7.10;99.90
31113;DHT22;17763;48.730;9.136;2022-11-22T05:17:45;7.10;99.90
31113;DHT22;17763;48.730;9.136;2022-11-22T05:20:13;7.30;99.90
31113;DHT22;17763;48.730;9.136;2022-11-22T05:22:41;7.10;99.90
31113;DHT22;17763;48.730;9.136;2022-11-22T05:25:28;7.10;99.90
31113;DHT22;17763;48.730;9.136;2022-11-22T05:27:54;7.10;99.90
31113;DHT22;17763;48.730;9.136;2022-11-22T05:30:20;7.10;99.90
31113;DHT22;17763;48.730;9.136;2022-11-22T05:32:46;7.10;99.90
31113;DHT22;17763;48.730;9.136;2022-11-22T05:35:13;7.10;99.90
31113;DHT22;17763;48.730;9.136;2022-11-22T05:37:41;7.20;99.90
31113;DHT22;17763;48.730;9.136;2022-11-22T05:40:08;7.10;99.90
31113;DHT22;17763;48.730;9.136;2022-11-22T05:42:36;7.20;99.90
31113;DHT22;17763;48.730;9.136;2022-11-22T05:45:02;7.20;99.90
31113;DHT22;17763;48.730;9.136;2022-11-22T05:47:33;7.20;99.90
31113;DHT22;17763;48.730;9.136;2022-11-22T05:49:58;7.20;99.90
31113;DHT22;17763;48.730;9.136;2022-11-22T05:52:29;7.20;99.90
31113;DHT22;17763;48.730;9.136;2022-11-22T05:54:54;7.20;99.90
31113;DHT22;17763;48.730;9.136;2022-11-22T05:57:20;7.30;99.90
31113;DHT22;17763;48.730;9.136;2022-11-22T05:59:48;7.20;99.90
31113;DHT22;17763;48.730;9.136;2022-11-22T06:02:14;7.20;99.90
31113;DHT22;17763;48.730;9.136;2022-11-22T06:04:39;7.30;99.90
31113;DHT22;17763;48.730;9.136;2022-11-22T06:07:05;7.30;99.90
31113;DHT22;17763;48.730;9.136;2022-11-22T06:09:32;7.30;99.90
31113;DHT22;17763;48.730;9.136;2022-11-22T06:11:57;7.30;99.90
31113;DHT22;17763;48.730;9.136;2022-11-22T06:14:23;7.30;99.90
31113;DHT22;17763;48.730;9.136;2022-11-22T06:16:51;7.30;99.90
31113;DHT22;17763;48.730;9.136;2022-11-22T06:19:17;7.30;99.90
31113;DHT22;17763;48.730;9.136;2022-11-22T06:21:43;7.30;99.90
31113;DHT22;17763;48.730;9.136;2022-11-22T06:24:11;7.30;99.90
31113;DHT22;17763;48.730;9.136;2022-11-22T06:26:37;7.30;99.90
31113;DHT22;17763;48.730;9.136;2022-11-22T06:29:05;7.30;99.90
31113;DHT22;17763;48.730;9.136;2022-11-22T06:31:31;7.30;99.90
31113;DHT22;17763;48.730;9.136;2022-11-22T06:33:58;7.30;99.90
31113;DHT22;17763;48.730;9.136;2022-11-22T06:36:28;7.30;99.90
31113;DHT22;17763;48.730;9.136;2022-11-22T06:38:56;7.40;99.90
31113;DHT22;17763;48.730;9.136;2022-11-22T06:41:25;7.30;99.90
31113;DHT22;17763;48.730;9.136;2022-11-22T06:43:52;7.30;99.90
31113;DHT22;17763;48.730;9.136;2022-11-22T06:46:21;7.30;99.90
31113;DHT22;17763;48.730;9.136;2022-11-22T06:48:50;7.30;99.90
31113;DHT22;17763;48.730;9.136;2022-11-22T06:51:21;7.30;99.90
31113;DHT22;17763;48.730;9.136;2022-11-22T06:53:51;7.30;99.90
31113;DHT22;17763;48.730;9.136;2022-11-22T06:58:42;7.30;99.90
31113;DHT22;17763;48.730;9.136;2022-11-22T07:01:13;7.30;99.90
31113;DHT22;17763;48.730;9.136;2022-11-22T07:03:40;7.30;99.90
31113;DHT22;17763;48.730;9.136;2022-11-22T07:06:08;7.20;99.90
31113;DHT22;17763;48.730;9.136;2022-11-22T07:08:35;7.30;99.90
31113;DHT22;17763;48.730;9.136;2022-11-22T07:11:07;7.30;99.90
31113;DHT22;17763;48.730;9.136;2022-11-22T07:13:34;7.30;99.90
31113;DHT22;17763;48.730;9.136;2022-11-22T07:16:06;7.30;99.90
31113;DHT22;17763;48.730;9.136;2022-11-22T07:18:32;7.30;99.90
31113;DHT22;17763;48.730;9.136;2022-11-22T07:21:06;7.30;99.90
31113;DHT22;17763;48.730;9.136;2022-11-22T07:23:32;7.30;99.90
31113;DHT22;17763;48.730;9.136;2022-11-22T07:25:58;7.30;99.90
31113;DHT22;17763;48.730;9.136;2022-11-22T07:28:26;7.30;99.90
31113;DHT22;17763;48.730;9.136;2022-11-22T07:30:58;7.30;99.90
31113;DHT22;17763;48.730;9.136;2022-11-22T07:33:24;7.30;99.90
31113;DHT22;17763;48.730;9.136;2022-11-22T07:35:50;7.30;99.90
31113;DHT22;17763;48.730;9.136;2022-11-22T07:38:16;7.30;99.90
31113;DHT22;17763;48.730;9.136;2022-11-22T07:40:44;7.30;99.90
31113;DHT22;17763;48.730;9.136;2022-11-22T07:43:09;7.30;99.90
31113;DHT22;17763;48.730;9.136;2022-11-22T07:45:35;7.30;99.90
31113;DHT22;17763;48.730;9.136;2022-11-22T07:48:01;7.30;99.90
31113;DHT22;17763;48.730;9.136;2022-11-22T07:50:27;7.30;99.90
31113;DHT22;17763;48.730;9.136;2022-11-22T07:52:57;7.30;99.90
31113;DHT22;17763;48.730;9.136;2022-11-22T07:55:24;7.30;99.90
31113;DHT22;17763;48.730;9.136;2022-11-22T07:57:51;7.30;99.90
31113;DHT22;17763;48.730;9.136;2022-11-22T08:00:18;7.40;99.90
31113;DHT22;17763;48.730;9.136;2022-11-22T08:02:44;7.30;99.90
31113;DHT22;17763;48.730;9.136;2022-11-22T08:05:10;7.30;99.90
31113;DHT22;17763;48.730;9.136;2022-11-22T08:07:38;7.30;99.90
31113;DHT22;17763;48.730;9.136;2022-11-22T08:10:12;7.40;99.90
31113;DHT22;17763;48.730;9.136;2022-11-22T08:12:40;7.40;99.90
31113;DHT22;17763;48.730;9.136;2022-11-22T08:15:09;7.30;99.90
31113;DHT22;17763;48.730;9.136;2022-11-22T08:17:37;7.40;99.90
31113;DHT22;17763;48.730;9.136;2022-11-22T08:20:05;7.40;99.90
31113;DHT22;17763;48.730;9.136;2022-11-22T08:22:31;7.40;99.90
31113;DHT22;17763;48.730;9.136;2022-11-22T08:24:56;7.40;99.90
31113;DHT22;17763;48.730;9.136;2022-11-22T08:27:23;7.40;99.90
31113;DHT22;17763;48.730;9.136;2022-11-22T08:29:51;7.50;99.90
31113;DHT22;17763;48.730;9.136;2022-11-22T08:32:17;7.50;99.90
31113;DHT22;17763;48.730;9.136;2022-11-22T08:34:42;7.50;99.90
31113;DHT22;17763;48.730;9.136;2022-11-22T08:37:10;7.40;99.90
31113;DHT22;17763;48.730;9.136;2022-11-22T08:39:36;7.50;99.90
31113;DHT22;17763;48.730;9.136;2022-11-22T08:42:03;7.50;99.90
31113;DHT22;17763;48.730;9.136;2022-11-22T08:44:33;7.50;99.90
31113;DHT22;17763;48.730;9.136;2022-11-22T08:46:59;7.50;99.90
31113;DHT22;17763;48.730;9.136;2022-11-22T08:49:26;7.50;99.90
31113;DHT22;17763;48.730;9.136;2022-11-22T08:51:52;7.50;99.90
31113;DHT22;17763;48.730;9.136;2022-11-22T08:54:20;7.60;99.90
31113;DHT22;17763;48.730;9.136;2022-11-22T08:56:46;7.60;99.90
31113;DHT22;17763;48.730;9.136;2022-11-22T08:59:12;7.60;99.90
31113;DHT22;17763;48.730;9.136;2022-11-22T09:01:37;7.60;99.90
31113;DHT22;17763;48.730;9.136;2022-11-22T09:04:03;7.60;99.90
31113;DHT22;17763;48.730;9.136;2022-11-22T09:06:30;7.70;99.90
31113;DHT22;17763;48.730;9.136;2022-11-22T09:08:58;7.70;99.90
31113;DHT22;17763;48.730;9.136;2022-11-22T09:11:23;7.70;99.90
31113;DHT22;17763;48.730;9.136;2022-11-22T09:13:51;7.70;99.90
31113;DHT22;17763;48.730;9.136;2022-11-22T09:16:18;7.80;99.90
31113;DHT22;17763;48.730;9.136;2022-11-22T09:18:47;7.80;99.90
31113;DHT22;17763;48.730;9.136;2022-11-22T09:21:15;7.80;99.90
31113;DHT22;17763;48.730;9.136;2022-11-22T09:23:48;7.80;99.90
31113;DHT22;17763;48.730;9.136;2022-11-22T09:26:24;7.90;99.90
31113;DHT22;17763;48.730;9.136;2022-11-22T09:28:51;7.90;99.90
31113;DHT22;17763;48.730;9.136;2022-11-22T09:31:23;8.00;99.90
31113;DHT22;17763;48.730;9.136;2022-11-22T09:33:50;8.00;99.90
31113;DHT22;17763;48.730;9.136;2022-11-22T09:36:18;8.10;99.90
31113;DHT22;17763;48.730;9.136;2022-11-22T09:38:44;8.00;99.90
31113;DHT22;17763;48.730;9.136;2022-11-22T09:52:52;8.20;99.90
31113;DHT22;17763;48.730;9.136;2022-11-22T10:00:26;8.30;99.90
31113;DHT22;17763;48.730;9.136;2022-11-22T10:03:46;8.30;99.90
31113;DHT22;17763;48.730;9.136;2022-11-22T10:10:50;8.30;99.90
31113;DHT22;17763;48.730;9.136;2022-11-22T10:13:32;8.30;99.90
31113;DHT22;17763;48.730;9.136;2022-11-22T10:16:14;8.30;99.90
31113;DHT22;17763;48.730;9.136;2022-11-22T10:18:55;8.20;99.90
31113;DHT22;17763;48.730;9.136;2022-11-22T10:21:23;8.20;99.90
31113;DHT22;17763;48.730;9.136;2022-11-22T10:23:50;8.20;99.90
31113;DHT22;17763;48.730;9.136;2022-11-22T10:26:34;8.20;99.90
31113;DHT22;17763;48.730;9.136;2022-11-22T10:29:25;8.20;99.90
31113;DHT22;17763;48.730;9.136;2022-11-22T10:37:59;8.20;99.90
31113;DHT22;17763;48.730;9.136;2022-11-22T10:45:43;8.10;99.90
31113;DHT22;17763;48.730;9.136;2022-11-22T10:50:57;8.00;99.90
31113;DHT22;17763;48.730;9.136;2022-11-22T10:56:36;7.90;99.90
31113;DHT22;17763;48.730;9.136;2022-11-22T10:59:24;7.90;99.90
31113;DHT22;17763;48.730;9.136;2022-11-22T11:04:28;7.80;99.90
31113;DHT22;17763;48.730;9.136;2022-11-22T11:06:56;7.80;99.90
31113;DHT22;17763;48.730;9.136;2022-11-22T11:12:01;7.80;99.90
31113;DHT22;17763;48.730;9.136;2022-11-22T11:14:45;7.70;99.90
31113;DHT22;17763;48.730;9.136;2022-11-22T11:17:25;7.70;99.90
31113;DHT22;17763;48.730;9.136;2022-11-22T11:19:54;7.70;99.90
31113;DHT22;17763;48.730;9.136;2022-11-22T11:22:27;7.70;99.90
31113;DHT22;17763;48.730;9.136;2022-11-22T11:24:55;7.70;99.90
31113;DHT22;17763;48.730;9.136;2022-11-22T11:27:29;7.80;99.90
31113;DHT22;17763;48.730;9.136;2022-11-22T11:30:03;7.80;99.90
31113;DHT22;17763;48.730;9.136;2022-11-22T11:32:50;7.90;99.90
31113;DHT22;17763;48.730;9.136;2022-11-22T11:35:16;7.90;99.90
31113;DHT22;17763;48.730;9.136;2022-11-22T11:37:44;8.00;99.90
31113;DHT22;17763;48.730;9.136;2022-11-22T11:40:30;8.00;99.90
31113;DHT22;17763;48.730;9.136;2022-11-22T11:43:17;7.90;99.90
31113;DHT22;17763;48.730;9.136;2022-11-22T11:45:43;8.00;99.90
31113;DHT22;17763;48.730;9.136;2022-11-22T11:48:35;8.00;99.90
31113;DHT22;17763;48.730;9.136;2022-11-22T11:53:41;8.00;99.90
31113;DHT22;17763;48.730;9.136;2022-11-22T11:56:50;8.10;99.90
31113;DHT22;17763;48.730;9.136;2022-11-22T11:59:24;8.10;99.90
31113;DHT22;17763;48.730;9.136;2022-11-22T12:04:52;8.10;99.90
31113;DHT22;17763;48.730;9.136;2022-11-22T12:07:26;8.10;99.90
31113;DHT22;17763;48.730;9.136;2022-11-22T12:09:53;8.20;99.90
31113;DHT22;17763;48.730;9.136;2022-11-22T12:13:12;8.20;99.90
31113;DHT22;17763;48.730;9.136;2022-11-22T12:15:32;8.20;99.90
31113;DHT22;17763;48.730;9.136;2022-11-22T12:18:18;8.20;99.90
31113;DHT22;17763;48.730;9.136;2022-11-22T12:20:52;8.20;99.90
31113;DHT22;17763;48.730;9.136;2022-11-22T12:23:23;8.20;99.90
31113;DHT22;17763;48.730;9.136;2022-11-22T12:25:52;8.20;99.90
31113;DHT22;17763;48.730;9.136;2022-11-22T12:28:24;8.20;99.90
31113;DHT22;17763;48.730;9.136;2022-11-22T12:33:46;8.20;99.90
31113;DHT22;17763;48.730;9.136;2022-11-22T12:36:19;8.20;99.90
31113;DHT22;17763;48.730;9.136;2022-11-22T12:38:48;8.20;99.90
31113;DHT22;17763;48.730;9.136;2022-11-22T12:41:17;8.30;99.90
31113;DHT22;17763;48.730;9.136;2022-11-22T12:43:58;8.20;99.90
31113;DHT22;17763;48.730;9.136;2022-11-22T12:46:52;8.20;99.90
31113;DHT22;17763;48.730;9.136;2022-11-22T12:52:14;8.30;99.90
31113;DHT22;17763;48.730;9.136;2022-11-22T12:58:20;8.40;99.90
31113;DHT22;17763;48.730;9.136;2022-11-22T13:01:18;8.40;99.90
31113;DHT22;17763;48.730;9.136;2022-11-22T13:09:18;8.40;99.90
31113;DHT22;17763;48.730;9.136;2022-11-22T13:11:57;8.40;99.90
31113;DHT22;17763;48.730;9.136;2022-11-22T13:14:35;8.40;99.90
31113;DHT22;17763;48.730;9.136;2022-11-22T13:17:10;8.40;99.90
31113;DHT22;17763;48.730;9.136;2022-11-22T13:19:44;8.40;99.90
31113;DHT22;17763;48.730;9.136;2022-11-22T13:22:15;8.40;99.90
31113;DHT22;17763;48.730;9.136;2022-11-22T13:27:35;8.30;99.90
31113;DHT22;17763;48.730;9.136;2022-11-22T13:30:14;8.30;99.90
31113;DHT22;17763;48.730;9.136;2022-11-22T13:32:41;8.20;99.90
31113;DHT22;17763;48.730;9.136;2022-11-22T13:37:44;8.20;99.90
31113;DHT22;17763;48.730;9.136;2022-11-22T13:42:41;8.20;99.90
31113;DHT22;17763;48.730;9.136;2022-11-22T13:45:23;8.20;99.90
31113;DHT22;17763;48.730;9.136;2022-11-22T13:47:52;8.20;99.90
31113;DHT22;17763;48.730;9.136;2022-11-22T13:53:25;8.30;99.90
31113;DHT22;17763;48.730;9.136;2022-11-22T13:55:54;8.30;99.90
31113;DHT22;17763;48.730;9.136;2022-11-22T14:00:51;8.30;99.90
31113;DHT22;17763;48.730;9.136;2022-11-22T14:03:39;8.30;99.90
31113;DHT22;17763;48.730;9.136;2022-11-22T14:06:26;8.30;99.90
31113;DHT22;17763;48.730;9.136;2022-11-22T14:15:19;8.40;99.90
31113;DHT22;17763;48.730;9.136;2022-11-22T14:20:43;8.40;99.90
31113;DHT22;17763;48.730;9.136;2022-11-22T14:23:48;8.50;99.90
31113;DHT22;17763;48.730;9.136;2022-11-22T14:27:07;8.50;99.90
31113;DHT22;17763;48.730;9.136;2022-11-22T14:32:17;8.60;99.90
31113;DHT22;17763;48.730;9.136;2022-11-22T14:50:29;8.40;99.80
31113;DHT22;17763;48.730;9.136;2022-11-22T14:52:59;8.40;99.90
31113;DHT22;17763;48.730;9.136;2022-11-22T14:55:30;8.40;99.90
31113;DHT22;17763;48.730;9.136;2022-11-22T14:58:00;8.40;99.90
31113;DHT22;17763;48.730;9.136;2022-11-22T15:00:53;8.40;99.90
31113;DHT22;17763;48.730;9.136;2022-11-22T15:03:34;8.40;99.90
31113;DHT22;17763;48.730;9.136;2022-11-22T15:16:48;8.30;99.90
31113;DHT22;17763;48.730;9.136;2022-11-22T15:19:35;8.30;99.90
31113;DHT22;17763;48.730;9.136;2022-11-22T15:22:14;8.30;99.90
31113;DHT22;17763;48.730;9.136;2022-11-22T15:24:52;8.40;99.90
31113;DHT22;17763;48.730;9.136;2022-11-22T15:27:19;8.40;99.90
31113;DHT22;17763;48.730;9.136;2022-11-22T15:29:45;8.40;99.90
31113;DHT22;17763;48.730;9.136;2022-11-22T15:32:20;8.30;99.90
31113;DHT22;17763;48.730;9.136;2022-11-22T15:34:46;8.30;99.90
31113;DHT22;17763;48.730;9.136;2022-11-22T15:37:36;8.30;99.90
31113;DHT22;17763;48.730;9.136;2022-11-22T15:40:19;8.30;99.90
31113;DHT22;17763;48.730;9.136;2022-11-22T15:42:58;8.30;99.90
31113;DHT22;17763;48.730;9.136;2022-11-22T15:45:29;8.20;99.90
31113;DHT22;17763;48.730;9.136;2022-11-22T15:48:02;8.20;99.90
31113;DHT22;17763;48.730;9.136;2022-11-22T15:50:29;8.20;99.90
31113;DHT22;17763;48.730;9.136;2022-11-22T15:53:24;8.10;99.90
31113;DHT22;17763;48.730;9.136;2022-11-22T15:58:38;8.10;99.90
31113;DHT22;17763;48.730;9.136;2022-11-22T16:01:14;8.10;99.90
31113;DHT22;17763;48.730;9.136;2022-11-22T16:03:41;8.10;99.90
31113;DHT22;17763;48.730;9.136;2022-11-22T16:06:28;8.00;99.90
31113;DHT22;17763;48.730;9.136;2022-11-22T16:08:59;8.00;99.90
31113;DHT22;17763;48.730;9.136;2022-11-22T16:11:32;8.00;99.90
31113;DHT22;17763;48.730;9.136;2022-11-22T16:13:59;7.90;99.90
31113;DHT22;17763;48.730;9.136;2022-11-22T16:16:32;7.80;99.90
31113;DHT22;17763;48.730;9.136;2022-11-22T16:19:23;7.80;99.90
31113;DHT22;17763;48.730;9.136;2022-11-22T16:21:59;7.80;99.90
31113;DHT22;17763;48.730;9.136;2022-11-22T16:24:27;7.80;99.90
31113;DHT22;17763;48.730;9.136;2022-11-22T16:26:57;7.80;99.90
31113;DHT22;17763;48.730;9.136;2022-11-22T16:29:34;7.80;99.90
31113;DHT22;17763;48.730;9.136;2022-11-22T16:32:09;7.80;99.90
31113;DHT22;17763;48.730;9.136;2022-11-22T16:34:36;7.70;99.90
31113;DHT22;17763;48.730;9.136;2022-11-22T16:37:29;7.60;99.90
31113;DHT22;17763;48.730;9.136;2022-11-22T16:39:55;7.60;99.90
31113;DHT22;17763;48.730;9.136;2022-11-22T16:42:21;7.60;99.90
31113;DHT22;17763;48.730;9.136;2022-11-22T16:44:47;7.50;99.90
31113;DHT22;17763;48.730;9.136;2022-11-22T16:47:16;7.50;99.90
31113;DHT22;17763;48.730;9.136;2022-11-22T16:49:46;7.50;99.90
31113;DHT22;17763;48.730;9.136;2022-11-22T16:52:13;7.50;99.90
31113;DHT22;17763;48.730;9.136;2022-11-22T16:54:40;7.50;99.90
31113;DHT22;17763;48.730;9.136;2022-11-22T16:57:14;7.60;99.90
31113;DHT22;17763;48.730;9.136;2022-11-22T16:59:40;7.60;99.90
31113;DHT22;17763;48.730;9.136;2022-11-22T17:02:10;7.60;99.90
31113;DHT22;17763;48.730;9.136;2022-11-22T17:04:36;7.60;99.90
31113;DHT22;17763;48.730;9.136;2022-11-22T17:07:11;7.60;99.90
31113;DHT22;17763;48.730;9.136;2022-11-22T17:09:37;7.70;99.90
31113;DHT22;17763;48.730;9.136;2022-11-22T17:12:24;7.70;99.90
31113;DHT22;17763;48.730;9.136;2022-11-22T17:14:50;7.70;99.90
31113;DHT22;17763;48.730;9.136;2022-11-22T17:17:17;7.70;99.90
31113;DHT22;17763;48.730;9.136;2022-11-22T17:19:43;7.70;99.90
31113;DHT22;17763;48.730;9.136;2022-11-22T17:22:14;7.70;99.90
31113;DHT22;17763;48.730;9.136;2022-11-22T17:24:40;7.70;99.90
31113;DHT22;17763;48.730;9.136;2022-11-22T17:27:09;7.70;99.90
31113;DHT22;17763;48.730;9.136;2022-11-22T17:29:34;7.70;99.90
31113;DHT22;17763;48.730;9.136;2022-11-22T17:32:03;7.70;99.90
31113;DHT22;17763;48.730;9.136;2022-11-22T17:34:31;7.70;99.90
31113;DHT22;17763;48.730;9.136;2022-11-22T17:36:58;7.70;99.90
31113;DHT22;17763;48.730;9.136;2022-11-22T17:39:24;7.60;99.90
31113;DHT22;17763;48.730;9.136;2022-11-22T17:41:50;7.60;99.90
31113;DHT22;17763;48.730;9.136;2022-11-22T17:44:16;7.60;99.90
31113;DHT22;17763;48.730;9.136;2022-11-22T17:46:42;7.50;99.90
31113;DHT22;17763;48.730;9.136;2022-11-22T17:49:11;7.50;99.90
31113;DHT22;17763;48.730;9.136;2022-11-22T17:51:37;7.50;99.90
31113;DHT22;17763;48.730;9.136;2022-11-22T17:54:03;7.50;99.90
31113;DHT22;17763;48.730;9.136;2022-11-22T17:56:29;7.50;99.90
31113;DHT22;17763;48.730;9.136;2022-11-22T17:58:58;7.60;99.90
31113;DHT22;17763;48.730;9.136;2022-11-22T18:01:23;7.60;99.90
31113;DHT22;17763;48.730;9.136;2022-11-22T18:03:52;7.60;99.90
31113;DHT22;17763;48.730;9.136;2022-11-22T18:06:18;7.60;99.90